sensor_id;sensor_type;location;lat;lon;timestamp;pressure;altitude;pressure_sealevel;temperature;humidity
75460;BME280;64039;53.060;9.342;2023-05-19T00:01:06;102425.09;;;8.25;86.73
75460;BME280;64039;53.060;9.342;2023-05-19T00:03:32;102426.38;;;8.16;86.82
75460;BME280;64039;53.060;9.342;2023-05-19T00:06:00;102427.19;;;8.15;86.38
75460;BME280;64039;53.060;9.342;2023-05-19T00:08:29;102421.72;;;8.11;86.90
75460;BME280;64039;53.060;9.342;2023-05-19T00:10:56;102428.59;;;8.10;86.42
75460;BME280;64039;53.060;9.342;2023-05-19T00:13:22;102417.81;;;8.02;86.43
75460;BME280;64039;53.060;9.342;2023-05-19T00:15:48;102415.66;;;7.95;87.20
75460;BME280;64039;53.060;9.342;2023-05-19T00:18:14;102415.41;;;7.91;87.59
75460;BME280;64039;53.060;9.342;2023-05-19T00:20:41;102410.28;;;7.92;88.05
75460;BME280;64039;53.060;9.342;2023-05-19T00:23:07;102411.00;;;7.90;87.78
75460;BME280;64039;53.060;9.342;2023-05-19T00:25:32;102416.72;;;7.99;88.36
75460;BME280;64039;53.060;9.342;2023-05-19T00:27:58;102412.16;;;7.95;88.46
75460;BME280;64039;53.060;9.342;2023-05-19T00:30:23;102416.13;;;7.88;89.71
75460;BME280;64039;53.060;9.342;2023-05-19T00:32:50;102415.13;;;7.86;89.71
75460;BME280;64039;53.060;9.342;2023-05-19T00:35:15;102414.59;;;7.77;89.54
75460;BME280;64039;53.060;9.342;2023-05-19T00:37:41;102413.31;;;7.70;89.56
75460;BME280;64039;53.060;9.342;2023-05-19T00:40:08;102409.06;;;7.70;89.40
75460;BME280;64039;53.060;9.342;2023-05-19T00:42:34;102399.66;;;7.72;90.35
75460;BME280;64039;53.060;9.342;2023-05-19T00:45:00;102397.50;;;7.65;90.14
75460;BME280;64039;53.060;9.342;2023-05-19T00:47:25;102395.34;;;7.58;89.90
75460;BME280;64039;53.060;9.342;2023-05-19T00:49:51;102394.75;;;7.62;90.17
75460;BME280;64039;53.060;9.342;2023-05-19T00:52:16;102397.22;;;7.61;90.21
75460;BME280;64039;53.060;9.342;2023-05-19T00:54:43;102396.97;;;7.56;90.80
75460;BME280;64039;53.060;9.342;2023-05-19T00:57:10;102405.38;;;7.52;93.08
75460;BME280;64039;53.060;9.342;2023-05-19T00:59:35;102400.34;;;7.40;94.96
75460;BME280;64039;53.060;9.342;2023-05-19T01:02:01;102394.81;;;7.49;94.18
75460;BME280;64039;53.060;9.342;2023-05-19T01:04:27;102394.38;;;7.41;93.17
75460;BME280;64039;53.060;9.342;2023-05-19T01:06:54;102394.47;;;7.43;93.92
75460;BME280;64039;53.060;9.342;2023-05-19T01:09:21;102397.94;;;7.28;94.38
75460;BME280;64039;53.060;9.342;2023-05-19T01:11:49;102406.44;;;7.12;95.74
75460;BME280;64039;53.060;9.342;2023-05-19T01:14:15;102404.63;;;7.24;95.88
75460;BME280;64039;53.060;9.342;2023-05-19T01:30:22;102398.09;;;7.16;97.38
75460;BME280;64039;53.060;9.342;2023-05-19T01:32:52;102399.06;;;7.18;98.58
75460;BME280;64039;53.060;9.342;2023-05-19T01:35:20;102407.38;;;7.13;98.98
75460;BME280;64039;53.060;9.342;2023-05-19T01:37:47;102396.09;;;7.12;99.54
75460;BME280;64039;53.060;9.342;2023-05-19T01:40:14;102407.69;;;7.04;99.42
75460;BME280;64039;53.060;9.342;2023-05-19T01:42:40;102411.06;;;7.03;99.99
75460;BME280;64039;53.060;9.342;2023-05-19T01:45:06;102408.03;;;6.82;99.91
75460;BME280;64039;53.060;9.342;2023-05-19T01:47:38;102406.25;;;6.81;100.00
75460;BME280;64039;53.060;9.342;2023-05-19T01:50:04;102411.06;;;6.74;100.00
75460;BME280;64039;53.060;9.342;2023-05-19T01:52:30;102407.22;;;6.96;99.81
75460;BME280;64039;53.060;9.342;2023-05-19T01:54:55;102415.53;;;7.05;100.00
75460;BME280;64039;53.060;9.342;2023-05-19T01:57:31;102413.19;;;6.95;100.00
75460;BME280;64039;53.060;9.342;2023-05-19T02:00:25;102416.31;;;6.76;100.00
75460;BME280;64039;53.060;9.342;2023-05-19T02:08:19;102413.28;;;6.55;99.94
75460;BME280;64039;53.060;9.342;2023-05-19T02:10:50;102412.59;;;6.57;100.00
75460;BME280;64039;53.060;9.342;2023-05-19T02:13:19;102402.75;;;6.52;100.00
75460;BME280;64039;53.060;9.342;2023-05-19T02:15:47;102409.88;;;6.56;100.00
75460;BME280;64039;53.060;9.342;2023-05-19T02:18:14;102404.03;;;6.58;100.00
75460;BME280;64039;53.060;9.342;2023-05-19T02:20:42;102400.84;;;6.63;100.00
75460;BME280;64039;53.060;9.342;2023-05-19T02:23:07;102403.50;;;6.64;100.00
75460;BME280;64039;53.060;9.342;2023-05-19T02:25:33;102398.47;;;6.52;100.00
75460;BME280;64039;53.060;9.342;2023-05-19T02:27:58;102396.38;;;6.47;100.00
75460;BME280;64039;53.060;9.342;2023-05-19T02:30:24;102396.28;;;6.45;100.00
75460;BME280;64039;53.060;9.342;2023-05-19T02:32:49;102391.72;;;6.41;100.00
75460;BME280;64039;53.060;9.342;2023-05-19T02:35:15;102394.09;;;6.38;100.00
75460;BME280;64039;53.060;9.342;2023-05-19T02:37:40;102394.50;;;6.44;100.00
75460;BME280;64039;53.060;9.342;2023-05-19T02:40:06;102389.72;;;6.37;100.00
75460;BME280;64039;53.060;9.342;2023-05-19T02:42:32;102395.41;;;6.44;100.00
75460;BME280;64039;53.060;9.342;2023-05-19T02:44:58;102390.22;;;6.44;100.00
75460;BME280;64039;53.060;9.342;2023-05-19T02:47:24;102386.13;;;6.35;100.00
75460;BME280;64039;53.060;9.342;2023-05-19T02:49:49;102389.81;;;6.38;100.00
75460;BME280;64039;53.060;9.342;2023-05-19T02:52:15;102385.53;;;6.25;100.00
75460;BME280;64039;53.060;9.342;2023-05-19T02:54:40;102386.06;;;6.20;100.00
75460;BME280;64039;53.060;9.342;2023-05-19T02:57:06;102385.53;;;6.25;100.00
75460;BME280;64039;53.060;9.342;2023-05-19T02:59:32;102385.53;;;6.25;100.00
75460;BME280;64039;53.060;9.342;2023-05-19T03:02:01;102383.56;;;6.35;100.00
75460;BME280;64039;53.060;9.342;2023-05-19T03:04:27;102381.88;;;6.35;100.00
75460;BME280;64039;53.060;9.342;2023-05-19T03:06:53;102374.09;;;6.49;100.00
75460;BME280;64039;53.060;9.342;2023-05-19T03:09:19;102380.66;;;6.30;100.00
75460;BME280;64039;53.060;9.342;2023-05-19T03:11:45;102379.84;;;6.58;100.00
75460;BME280;64039;53.060;9.342;2023-05-19T03:14:10;102373.88;;;6.59;100.00
75460;BME280;64039;53.060;9.342;2023-05-19T03:16:37;102380.63;;;6.70;100.00
75460;BME280;64039;53.060;9.342;2023-05-19T03:19:05;102379.34;;;6.64;100.00
75460;BME280;64039;53.060;9.342;2023-05-19T03:21:31;102375.47;;;6.57;100.00
75460;BME280;64039;53.060;9.342;2023-05-19T03:23:56;102380.56;;;6.55;100.00
75460;BME280;64039;53.060;9.342;2023-05-19T03:26:22;102374.38;;;6.53;100.00
75460;BME280;64039;53.060;9.342;2023-05-19T03:28:48;102370.72;;;6.50;100.00
75460;BME280;64039;53.060;9.342;2023-05-19T03:31:14;102374.72;;;6.44;100.00
75460;BME280;64039;53.060;9.342;2023-05-19T03:33:40;102375.50;;;6.43;100.00
75460;BME280;64039;53.060;9.342;2023-05-19T03:36:06;102380.59;;;6.42;100.00
75460;BME280;64039;53.060;9.342;2023-05-19T03:38:31;102373.78;;;6.44;100.00
75460;BME280;64039;53.060;9.342;2023-05-19T03:40:57;102377.88;;;6.40;100.00
75460;BME280;64039;53.060;9.342;2023-05-19T03:43:22;102378.38;;;6.48;100.00
75460;BME280;64039;53.060;9.342;2023-05-19T03:45:48;102379.63;;;6.55;100.00
75460;BME280;64039;53.060;9.342;2023-05-19T03:48:13;102376.78;;;6.50;100.00
75460;BME280;64039;53.060;9.342;2023-05-19T03:50:40;102377.88;;;6.40;100.00
75460;BME280;64039;53.060;9.342;2023-05-19T03:53:06;102378.47;;;6.50;100.00
75460;BME280;64039;53.060;9.342;2023-05-19T03:55:32;102379.38;;;6.50;100.00
75460;BME280;64039;53.060;9.342;2023-05-19T03:57:57;102383.56;;;6.48;100.00
75460;BME280;64039;53.060;9.342;2023-05-19T04:00:23;102383.94;;;6.54;100.00
75460;BME280;64039;53.060;9.342;2023-05-19T04:02:49;102387.47;;;6.70;100.00
75460;BME280;64039;53.060;9.342;2023-05-19T04:05:15;102392.06;;;6.74;100.00
75460;BME280;64039;53.060;9.342;2023-05-19T04:07:40;102387.69;;;6.73;100.00
75460;BME280;64039;53.060;9.342;2023-05-19T04:10:07;102386.75;;;6.72;100.00
75460;BME280;64039;53.060;9.342;2023-05-19T04:12:32;102384.66;;;6.80;100.00
75460;BME280;64039;53.060;9.342;2023-05-19T04:14:58;102382.66;;;6.76;100.00
75460;BME280;64039;53.060;9.342;2023-05-19T04:17:24;102389.69;;;6.92;100.00
75460;BME280;64039;53.060;9.342;2023-05-19T04:19:53;102395.75;;;6.92;100.00
75460;BME280;64039;53.060;9.342;2023-05-19T04:22:18;102393.28;;;6.94;100.00
75460;BME280;64039;53.060;9.342;2023-05-19T04:24:44;102393.75;;;7.02;100.00
75460;BME280;64039;53.060;9.342;2023-05-19T04:27:10;102392.63;;;7.12;100.00
75460;BME280;64039;53.060;9.342;2023-05-19T04:29:37;102389.75;;;7.07;100.00
75460;BME280;64039;53.060;9.342;2023-05-19T04:32:04;102393.22;;;7.07;100.00
75460;BME280;64039;53.060;9.342;2023-05-19T04:34:33;102393.78;;;7.17;100.00
75460;BME280;64039;53.060;9.342;2023-05-19T04:36:59;102395.22;;;7.27;100.00
75460;BME280;64039;53.060;9.342;2023-05-19T04:39:25;102393.56;;;7.27;100.00
75460;BME280;64039;53.060;9.342;2023-05-19T04:41:50;102389.97;;;7.25;100.00
75460;BME280;64039;53.060;9.342;2023-05-19T04:44:18;102393.81;;;7.32;100.00
75460;BME280;64039;53.060;9.342;2023-05-19T04:46:43;102400.09;;;7.35;100.00
75460;BME280;64039;53.060;9.342;2023-05-19T04:49:09;102401.06;;;7.37;100.00
75460;BME280;64039;53.060;9.342;2023-05-19T04:51:37;102398.03;;;7.45;100.00
75460;BME280;64039;53.060;9.342;2023-05-19T04:54:06;102400.38;;;7.55;100.00
75460;BME280;64039;53.060;9.342;2023-05-19T04:56:31;102400.00;;;7.49;100.00
75460;BME280;64039;53.060;9.342;2023-05-19T04:58:57;102396.34;;;7.60;100.00
75460;BME280;64039;53.060;9.342;2023-05-19T05:01:22;102389.19;;;7.71;100.00
75460;BME280;64039;53.060;9.342;2023-05-19T05:03:50;102391.78;;;7.86;100.00
75460;BME280;64039;53.060;9.342;2023-05-19T05:06:19;102394.53;;;7.89;100.00
75460;BME280;64039;53.060;9.342;2023-05-19T05:08:45;102389.00;;;7.98;100.00
75460;BME280;64039;53.060;9.342;2023-05-19T05:11:10;102388.47;;;8.03;99.26
75460;BME280;64039;53.060;9.342;2023-05-19T05:13:36;102394.00;;;8.10;99.33
75460;BME280;64039;53.060;9.342;2023-05-19T05:16:02;102394.19;;;8.13;99.34
75460;BME280;64039;53.060;9.342;2023-05-19T05:18:32;102388.81;;;8.10;98.87
75460;BME280;64039;53.060;9.342;2023-05-19T05:20:57;102392.84;;;8.05;99.62
75460;BME280;64039;53.060;9.342;2023-05-19T05:23:23;102396.38;;;8.22;98.97
75460;BME280;64039;53.060;9.342;2023-05-19T05:25:49;102408.34;;;8.34;99.51
75460;BME280;64039;53.060;9.342;2023-05-19T05:28:14;102399.22;;;8.41;98.76
75460;BME280;64039;53.060;9.342;2023-05-19T05:30:40;102400.63;;;8.51;98.05
75460;BME280;64039;53.060;9.342;2023-05-19T05:33:06;102398.56;;;8.60;96.98
75460;BME280;64039;53.060;9.342;2023-05-19T05:35:32;102401.91;;;8.74;97.61
75460;BME280;64039;53.060;9.342;2023-05-19T05:37:57;102403.28;;;8.84;97.44
75460;BME280;64039;53.060;9.342;2023-05-19T05:40:23;102400.94;;;8.89;96.23
75460;BME280;64039;53.060;9.342;2023-05-19T05:42:48;102403.78;;;9.10;96.84
75460;BME280;64039;53.060;9.342;2023-05-19T05:45:14;102397.38;;;9.03;96.28
75460;BME280;64039;53.060;9.342;2023-05-19T05:47:39;102399.97;;;9.20;96.19
75460;BME280;64039;53.060;9.342;2023-05-19T05:50:08;102400.09;;;9.39;95.50
75460;BME280;64039;53.060;9.342;2023-05-19T05:52:35;102408.22;;;9.46;94.12
75460;BME280;64039;53.060;9.342;2023-05-19T05:55:04;102398.53;;;9.59;93.66
75460;BME280;64039;53.060;9.342;2023-05-19T05:57:29;102401.66;;;9.70;93.00
75460;BME280;64039;53.060;9.342;2023-05-19T05:59:55;102398.66;;;9.79;94.06
75460;BME280;64039;53.060;9.342;2023-05-19T06:02:21;102393.38;;;9.96;91.92
75460;BME280;64039;53.060;9.342;2023-05-19T06:04:47;102393.69;;;10.02;90.10
75460;BME280;64039;53.060;9.342;2023-05-19T06:07:12;102396.38;;;10.21;89.85
75460;BME280;64039;53.060;9.342;2023-05-19T06:09:38;102393.50;;;10.35;90.66
75460;BME280;64039;53.060;9.342;2023-05-19T06:12:03;102394.91;;;10.45;89.45
75460;BME280;64039;53.060;9.342;2023-05-19T06:14:29;102391.66;;;10.50;88.67
75460;BME280;64039;53.060;9.342;2023-05-19T06:16:54;102398.00;;;10.56;87.90
75460;BME280;64039;53.060;9.342;2023-05-19T06:19:20;102387.31;;;10.69;87.09
75460;BME280;64039;53.060;9.342;2023-05-19T06:21:46;102401.53;;;10.76;87.30
75460;BME280;64039;53.060;9.342;2023-05-19T06:24:11;102398.72;;;10.91;86.08
75460;BME280;64039;53.060;9.342;2023-05-19T06:26:36;102392.63;;;11.10;84.75
75460;BME280;64039;53.060;9.342;2023-05-19T06:29:02;102396.66;;;11.23;84.61
75460;BME280;64039;53.060;9.342;2023-05-19T06:31:28;102395.09;;;11.26;83.73
75460;BME280;64039;53.060;9.342;2023-05-19T06:33:53;102393.81;;;11.38;82.77
75460;BME280;64039;53.060;9.342;2023-05-19T06:36:19;102399.94;;;11.38;83.05
75460;BME280;64039;53.060;9.342;2023-05-19T06:38:44;102395.63;;;11.60;80.33
75460;BME280;64039;53.060;9.342;2023-05-19T06:41:10;102388.28;;;11.71;79.95
75460;BME280;64039;53.060;9.342;2023-05-19T06:43:35;102390.75;;;11.89;79.08
75460;BME280;64039;53.060;9.342;2023-05-19T06:46:01;102390.41;;;11.81;78.18
75460;BME280;64039;53.060;9.342;2023-05-19T06:48:26;102393.78;;;11.98;80.21
75460;BME280;64039;53.060;9.342;2023-05-19T06:50:52;102390.81;;;12.11;78.77
75460;BME280;64039;53.060;9.342;2023-05-19T06:53:18;102387.81;;;12.23;76.55
75460;BME280;64039;53.060;9.342;2023-05-19T06:55:44;102394.63;;;12.42;76.52
75460;BME280;64039;53.060;9.342;2023-05-19T06:58:10;102387.66;;;12.41;74.58
75460;BME280;64039;53.060;9.342;2023-05-19T07:00:35;102386.09;;;12.47;74.65
75460;BME280;64039;53.060;9.342;2023-05-19T07:03:01;102390.78;;;12.55;75.03
75460;BME280;64039;53.060;9.342;2023-05-19T07:05:27;102390.66;;;12.75;73.30
75460;BME280;64039;53.060;9.342;2023-05-19T07:07:52;102390.88;;;12.81;73.45
75460;BME280;64039;53.060;9.342;2023-05-19T07:10:18;102388.06;;;12.77;71.82
75460;BME280;64039;53.060;9.342;2023-05-19T07:12:43;102390.38;;;12.92;72.21
75460;BME280;64039;53.060;9.342;2023-05-19T07:15:09;102391.88;;;13.09;71.08
75460;BME280;64039;53.060;9.342;2023-05-19T07:17:35;102394.78;;;13.17;69.70
75460;BME280;64039;53.060;9.342;2023-05-19T07:20:00;102409.06;;;13.02;69.25
75460;BME280;64039;53.060;9.342;2023-05-19T07:22:26;102395.78;;;13.20;68.43
75460;BME280;64039;53.060;9.342;2023-05-19T07:24:51;102386.56;;;13.32;68.27
75460;BME280;64039;53.060;9.342;2023-05-19T07:27:17;102394.84;;;13.43;67.61
75460;BME280;64039;53.060;9.342;2023-05-19T07:29:43;102395.09;;;13.50;67.15
75460;BME280;64039;53.060;9.342;2023-05-19T07:32:08;102386.00;;;13.65;65.89
75460;BME280;64039;53.060;9.342;2023-05-19T07:34:34;102390.38;;;13.92;66.18
75460;BME280;64039;53.060;9.342;2023-05-19T07:36:59;102389.03;;;14.05;64.97
75460;BME280;64039;53.060;9.342;2023-05-19T07:39:25;102391.56;;;14.02;64.19
75460;BME280;64039;53.060;9.342;2023-05-19T07:41:54;102384.34;;;14.22;63.82
75460;BME280;64039;53.060;9.342;2023-05-19T07:44:20;102378.38;;;14.27;60.49
75460;BME280;64039;53.060;9.342;2023-05-19T07:46:46;102380.16;;;14.28;60.20
75460;BME280;64039;53.060;9.342;2023-05-19T07:49:12;102387.75;;;14.48;60.44
75460;BME280;64039;53.060;9.342;2023-05-19T07:51:37;102378.63;;;14.64;58.40
75460;BME280;64039;53.060;9.342;2023-05-19T07:54:03;102379.78;;;14.72;58.47
75460;BME280;64039;53.060;9.342;2023-05-19T07:56:28;102377.41;;;14.53;58.05
75460;BME280;64039;53.060;9.342;2023-05-19T07:58:54;102381.00;;;14.56;58.63
75460;BME280;64039;53.060;9.342;2023-05-19T08:01:20;102373.91;;;14.81;59.29
75460;BME280;64039;53.060;9.342;2023-05-19T08:03:45;102382.88;;;14.89;57.04
75460;BME280;64039;53.060;9.342;2023-05-19T08:06:10;102374.03;;;14.86;56.54
75460;BME280;64039;53.060;9.342;2023-05-19T08:08:36;102380.50;;;14.99;57.40
75460;BME280;64039;53.060;9.342;2023-05-19T08:11:03;102373.41;;;14.94;57.62
75460;BME280;64039;53.060;9.342;2023-05-19T08:13:29;102377.25;;;15.07;57.63
75460;BME280;64039;53.060;9.342;2023-05-19T08:15:55;102382.59;;;15.11;57.13
75460;BME280;64039;53.060;9.342;2023-05-19T08:18:26;102375.56;;;14.77;57.18
75460;BME280;64039;53.060;9.342;2023-05-19T08:20:52;102370.16;;;15.03;57.28
75460;BME280;64039;53.060;9.342;2023-05-19T08:23:18;102377.81;;;15.28;57.39
75460;BME280;64039;53.060;9.342;2023-05-19T08:25:43;102368.75;;;15.50;56.22
75460;BME280;64039;53.060;9.342;2023-05-19T08:28:09;102364.81;;;15.67;54.91
75460;BME280;64039;53.060;9.342;2023-05-19T08:30:34;102369.72;;;15.53;55.62
75460;BME280;64039;53.060;9.342;2023-05-19T08:33:00;102365.66;;;15.66;55.02
75460;BME280;64039;53.060;9.342;2023-05-19T08:35:26;102364.94;;;15.72;55.13
75460;BME280;64039;53.060;9.342;2023-05-19T08:37:52;102363.03;;;15.66;55.31
75460;BME280;64039;53.060;9.342;2023-05-19T08:40:18;102353.59;;;15.73;53.98
75460;BME280;64039;53.060;9.342;2023-05-19T08:42:44;102351.78;;;16.07;54.37
75460;BME280;64039;53.060;9.342;2023-05-19T08:45:11;102354.69;;;15.83;54.46
75460;BME280;64039;53.060;9.342;2023-05-19T08:47:36;102351.25;;;15.84;53.59
75460;BME280;64039;53.060;9.342;2023-05-19T08:50:06;102338.41;;;15.96;54.07
75460;BME280;64039;53.060;9.342;2023-05-19T08:52:47;102335.44;;;16.21;54.69
75460;BME280;64039;53.060;9.342;2023-05-19T08:58:23;102335.75;;;16.34;53.13
75460;BME280;64039;53.060;9.342;2023-05-19T09:00:49;102331.59;;;16.44;52.82
75460;BME280;64039;53.060;9.342;2023-05-19T09:03:16;102326.34;;;16.44;52.44
75460;BME280;64039;53.060;9.342;2023-05-19T09:05:42;102325.81;;;16.62;53.03
75460;BME280;64039;53.060;9.342;2023-05-19T09:08:08;102319.25;;;16.85;51.41
75460;BME280;64039;53.060;9.342;2023-05-19T09:10:33;102323.00;;;16.96;50.93
75460;BME280;64039;53.060;9.342;2023-05-19T09:12:59;102319.91;;;17.19;50.01
75460;BME280;64039;53.060;9.342;2023-05-19T09:15:26;102305.97;;;17.24;48.67
75460;BME280;64039;53.060;9.342;2023-05-19T09:18:08;102312.28;;;17.36;49.05
75460;BME280;64039;53.060;9.342;2023-05-19T09:20:39;102316.69;;;17.35;48.92
75460;BME280;64039;53.060;9.342;2023-05-19T09:23:06;102309.56;;;17.29;48.25
75460;BME280;64039;53.060;9.342;2023-05-19T09:25:32;102306.50;;;17.05;49.13
75460;BME280;64039;53.060;9.342;2023-05-19T09:27:58;102302.06;;;17.53;47.19
75460;BME280;64039;53.060;9.342;2023-05-19T09:30:23;102302.00;;;17.48;47.41
75460;BME280;64039;53.060;9.342;2023-05-19T09:32:50;102304.28;;;17.28;45.78
75460;BME280;64039;53.060;9.342;2023-05-19T09:35:15;102305.47;;;17.47;47.01
75460;BME280;64039;53.060;9.342;2023-05-19T09:37:45;102300.44;;;17.61;47.21
75460;BME280;64039;53.060;9.342;2023-05-19T09:40:14;102308.56;;;17.76;47.13
75460;BME280;64039;53.060;9.342;2023-05-19T09:42:41;102306.72;;;17.72;46.46
75460;BME280;64039;53.060;9.342;2023-05-19T09:45:08;102306.16;;;17.94;46.89
75460;BME280;64039;53.060;9.342;2023-05-19T09:47:39;102311.75;;;18.12;47.18
75460;BME280;64039;53.060;9.342;2023-05-19T09:50:07;102307.63;;;18.34;46.57
75460;BME280;64039;53.060;9.342;2023-05-19T09:52:42;102296.91;;;18.22;46.11
75460;BME280;64039;53.060;9.342;2023-05-19T09:55:12;102299.53;;;18.19;46.35
75460;BME280;64039;53.060;9.342;2023-05-19T09:57:38;102285.00;;;18.50;46.40
75460;BME280;64039;53.060;9.342;2023-05-19T10:00:06;102281.56;;;18.58;46.14
75460;BME280;64039;53.060;9.342;2023-05-19T10:02:46;102294.56;;;18.44;46.62
75460;BME280;64039;53.060;9.342;2023-05-19T10:05:13;102278.25;;;18.03;45.99
75460;BME280;64039;53.060;9.342;2023-05-19T10:07:46;102285.56;;;18.26;46.45
75460;BME280;64039;53.060;9.342;2023-05-19T10:10:14;102285.50;;;18.21;46.67
75460;BME280;64039;53.060;9.342;2023-05-19T10:12:40;102276.81;;;18.29;46.40
75460;BME280;64039;53.060;9.342;2023-05-19T10:15:11;102272.69;;;18.49;46.62
75460;BME280;64039;53.060;9.342;2023-05-19T10:17:37;102280.91;;;18.82;47.00
75460;BME280;64039;53.060;9.342;2023-05-19T10:20:11;102267.47;;;18.57;44.15
75460;BME280;64039;53.060;9.342;2023-05-19T10:22:39;102267.00;;;18.17;46.16
75460;BME280;64039;53.060;9.342;2023-05-19T10:25:06;102264.88;;;17.92;45.34
75460;BME280;64039;53.060;9.342;2023-05-19T10:27:34;102259.19;;;17.63;45.49
75460;BME280;64039;53.060;9.342;2023-05-19T10:30:09;102259.31;;;17.69;45.91
75460;BME280;64039;53.060;9.342;2023-05-19T10:32:38;102262.09;;;17.82;45.96
75460;BME280;64039;53.060;9.342;2023-05-19T10:41:15;102254.00;;;17.66;47.88
75460;BME280;64039;53.060;9.342;2023-05-19T10:43:55;102253.41;;;17.89;47.58
75460;BME280;64039;53.060;9.342;2023-05-19T10:46:28;102259.25;;;17.66;46.37
75460;BME280;64039;53.060;9.342;2023-05-19T10:48:54;102252.06;;;17.54;47.53
75460;BME280;64039;53.060;9.342;2023-05-19T10:51:20;102252.53;;;17.87;46.53
75460;BME280;64039;53.060;9.342;2023-05-19T10:53:45;102243.44;;;17.65;46.28
75460;BME280;64039;53.060;9.342;2023-05-19T10:56:26;102252.91;;;17.52;46.26
75460;BME280;64039;53.060;9.342;2023-05-19T10:58:57;102238.53;;;17.31;47.65
75460;BME280;64039;53.060;9.342;2023-05-19T11:01:31;102247.19;;;17.24;47.23
75460;BME280;64039;53.060;9.342;2023-05-19T11:04:06;102249.75;;;17.19;47.37
75460;BME280;64039;53.060;9.342;2023-05-19T11:06:33;102235.41;;;17.00;48.60
75460;BME280;64039;53.060;9.342;2023-05-19T11:09:13;102238.75;;;17.43;48.33
75460;BME280;64039;53.060;9.342;2023-05-19T11:11:48;102238.03;;;17.54;46.57
75460;BME280;64039;53.060;9.342;2023-05-19T11:14:17;102239.69;;;17.50;47.28
75460;BME280;64039;53.060;9.342;2023-05-19T11:16:46;102238.59;;;17.36;47.26
75460;BME280;64039;53.060;9.342;2023-05-19T11:19:28;102237.88;;;17.44;47.38
75460;BME280;64039;53.060;9.342;2023-05-19T11:21:54;102230.91;;;17.48;46.88
75460;BME280;64039;53.060;9.342;2023-05-19T11:27:29;102233.03;;;17.74;45.73
75460;BME280;64039;53.060;9.342;2023-05-19T11:30:08;102233.63;;;18.17;45.52
75460;BME280;64039;53.060;9.342;2023-05-19T11:32:40;102229.63;;;18.50;45.94
75460;BME280;64039;53.060;9.342;2023-05-19T11:35:08;102232.38;;;18.61;44.38
75460;BME280;64039;53.060;9.342;2023-05-19T11:37:34;102226.19;;;18.58;44.15
75460;BME280;64039;53.060;9.342;2023-05-19T11:40:00;102236.25;;;18.16;44.77
75460;BME280;64039;53.060;9.342;2023-05-19T11:42:26;102236.34;;;18.23;46.13
75460;BME280;64039;53.060;9.342;2023-05-19T11:44:54;102222.63;;;18.54;44.13
75460;BME280;64039;53.060;9.342;2023-05-19T11:47:20;102224.03;;;19.09;43.37
75460;BME280;64039;53.060;9.342;2023-05-19T11:49:50;102219.84;;;18.43;43.37
75460;BME280;64039;53.060;9.342;2023-05-19T11:52:23;102218.84;;;17.64;44.80
75460;BME280;64039;53.060;9.342;2023-05-19T11:54:49;102223.78;;;18.02;44.20
75460;BME280;64039;53.060;9.342;2023-05-19T11:57:15;102217.63;;;18.02;45.07
75460;BME280;64039;53.060;9.342;2023-05-19T11:59:41;102214.84;;;17.92;44.79
75460;BME280;64039;53.060;9.342;2023-05-19T12:02:21;102207.13;;;18.05;44.57
75460;BME280;64039;53.060;9.342;2023-05-19T12:04:47;102212.09;;;18.56;44.85
75460;BME280;64039;53.060;9.342;2023-05-19T12:07:19;102205.53;;;19.03;44.49
75460;BME280;64039;53.060;9.342;2023-05-19T12:09:47;102208.56;;;19.64;42.46
75460;BME280;64039;53.060;9.342;2023-05-19T12:12:20;102210.47;;;19.86;39.40
75460;BME280;64039;53.060;9.342;2023-05-19T12:14:49;102197.44;;;20.31;39.11
75460;BME280;64039;53.060;9.342;2023-05-19T12:17:17;102202.66;;;20.01;39.43
75460;BME280;64039;53.060;9.342;2023-05-19T12:19:44;102200.66;;;19.63;41.62
75460;BME280;64039;53.060;9.342;2023-05-19T12:22:11;102193.44;;;19.37;41.33
75460;BME280;64039;53.060;9.342;2023-05-19T12:24:37;102207.34;;;19.08;41.66
75460;BME280;64039;53.060;9.342;2023-05-19T12:27:06;102209.78;;;18.90;41.64
75460;BME280;64039;53.060;9.342;2023-05-19T12:29:34;102200.69;;;18.57;41.71
75460;BME280;64039;53.060;9.342;2023-05-19T12:32:00;102200.69;;;18.57;43.31
75460;BME280;64039;53.060;9.342;2023-05-19T12:34:25;102202.50;;;18.65;41.98
75460;BME280;64039;53.060;9.342;2023-05-19T12:36:51;102195.63;;;18.81;40.68
75460;BME280;64039;53.060;9.342;2023-05-19T12:39:16;102187.19;;;19.23;40.15
75460;BME280;64039;53.060;9.342;2023-05-19T12:41:44;102187.31;;;19.37;39.67
75460;BME280;64039;53.060;9.342;2023-05-19T12:44:14;102187.34;;;19.49;40.89
75460;BME280;64039;53.060;9.342;2023-05-19T12:46:40;102180.25;;;19.34;40.32
75460;BME280;64039;53.060;9.342;2023-05-19T12:49:05;102182.69;;;19.08;41.57
75460;BME280;64039;53.060;9.342;2023-05-19T12:51:31;102177.88;;;18.62;42.27
75460;BME280;64039;53.060;9.342;2023-05-19T12:53:57;102183.72;;;18.31;42.77
75460;BME280;64039;53.060;9.342;2023-05-19T12:56:24;102181.97;;;18.33;41.77
75460;BME280;64039;53.060;9.342;2023-05-19T12:58:53;102171.44;;;18.32;42.84
75460;BME280;64039;53.060;9.342;2023-05-19T13:01:19;102168.09;;;18.50;42.68
75460;BME280;64039;53.060;9.342;2023-05-19T13:03:46;102165.44;;;18.50;42.38
75460;BME280;64039;53.060;9.342;2023-05-19T13:06:12;102162.56;;;18.25;41.83
75460;BME280;64039;53.060;9.342;2023-05-19T13:08:37;102163.84;;;18.67;42.77
75460;BME280;64039;53.060;9.342;2023-05-19T13:11:04;102163.47;;;19.26;42.07
75460;BME280;64039;53.060;9.342;2023-05-19T13:13:29;102161.19;;;19.92;40.81
75460;BME280;64039;53.060;9.342;2023-05-19T13:15:55;102157.78;;;20.31;39.57
75460;BME280;64039;53.060;9.342;2023-05-19T13:18:20;102159.47;;;20.07;38.98
75460;BME280;64039;53.060;9.342;2023-05-19T13:20:46;102167.25;;;19.68;40.20
75460;BME280;64039;53.060;9.342;2023-05-19T13:23:14;102168.97;;;19.61;40.97